Time;durP1;ratioP1;P1;durP2;ratioP2;P2;SDS_P1;SDS_P2;PMS_P1;PMS_P2;Temp;Humidity;BMP_temperature;BMP_pressure;BME280_temperature;BME280_humidity;BME280_pressure;Samples;Min_cycle;Max_cycle;Signal;HPM_P1;HPM_P2
2023/10/05 00:02:21;;;;;;;18.50;7.00;;;;;;;9.18;79.67;100989.91;133786;1297;22432;-74
2023/10/05 00:05:26;;;;;;;12.80;6.50;;;;;;;9.15;79.73;100993.15;133866;1296;22404;-74
2023/10/05 00:08:43;;;;;;;;;;;;;;;;;;;;;
2023/10/05 00:12:06;;;;;;;;;;;;;;;;;;;;;
2023/10/05 00:15:14;;;;;;;12.20;6.70;;;;;;;9.17;80.17;100993.05;133798;1304;22340;-75
2023/10/05 00:18:21;;;;;;;18.00;6.70;;;;;;;9.18;80.18;100992.95;133927;1297;22339;-73
2023/10/05 00:21:38;;;;;;;13.70;6.20;;;;;;;9.19;80.35;100988.39;133924;1294;23208;-75
2023/10/05 00:24:45;;;;;;;13.40;6.60;;;;;;;9.21;80.43;100987.23;133860;1297;22199;-73
2023/10/05 00:28:13;;;;;;;16.80;6.60;;;;;;;9.23;80.67;100981.35;133813;1297;22368;-75
2023/10/05 00:31:23;;;;;;;18.20;6.40;;;;;;;9.25;80.75;100972.23;133794;1300;23130;-73
2023/10/05 00:34:36;;;;;;;14.90;6.90;;;;;;;9.27;80.73;100966.75;133852;1298;23149;-75
2023/10/05 00:37:37;;;;;;;14.90;7.10;;;;;;;9.27;80.81;100965.33;133877;1302;22233;-74
2023/10/05 00:41:08;;;;;;;;;;;;;;;;;;;;;
2023/10/05 00:44:14;;;;;;;18.70;6.80;;;;;;;9.26;80.96;100964.32;133897;1300;23265;-73
2023/10/05 00:47:16;;;;;;;14.00;6.80;;;;;;;9.28;81.00;100958.02;133708;1297;22330;-73
2023/10/05 00:53:49;;;;;;;12.50;6.70;;;;;;;9.28;81.08;100957.05;133827;1299;23219;-73
2023/10/05 00:57:09;;;;;;;10.00;6.00;;;;;;;9.30;81.13;100962.86;133932;1297;22592;-76
2023/10/05 01:00:28;;;;;;;12.40;6.80;;;;;;;9.32;81.27;100961.17;133915;1304;22445;-72
2023/10/05 01:03:35;;;;;;;12.00;6.30;;;;;;;9.33;81.26;100967.25;133936;1297;22440;-73
2023/10/05 01:06:57;;;;;;;16.00;6.70;;;;;;;9.31;81.18;100965.47;133951;1298;23336;-74
2023/10/05 01:11:15;;;;;;;13.10;6.00;;;;;;;9.27;81.22;100963.16;133966;1297;22387;-73
2023/10/05 01:14:03;;;;;;;13.20;6.00;;;;;;;9.24;81.21;100956.88;133810;1299;22449;-74
2023/10/05 01:17:31;;;;;;;13.90;6.50;;;;;;;9.21;81.08;100949.02;134034;1297;22441;-73
2023/10/05 01:20:36;;;;;;;9.40;5.60;;;;;;;9.17;81.07;100947.48;133894;1303;22800;-73
2023/10/05 01:23:44;;;;;;;12.00;5.90;;;;;;;9.13;80.94;100940.28;133928;1298;23178;-73
2023/10/05 01:26:50;;;;;;;14.40;5.70;;;;;;;9.06;80.74;100937.02;133926;1294;23144;-75
2023/10/05 01:30:18;;;;;;;11.50;5.70;;;;;;;9.00;80.88;100936.83;133738;1304;22465;-75
2023/10/05 01:34:04;;;;;;;13.10;6.10;;;;;;;8.91;80.81;100937.20;133937;1300;22456;-72
2023/10/05 01:37:04;;;;;;;10.80;5.60;;;;;;;8.85;80.67;100940.96;133844;1297;23190;-73
2023/10/05 01:43:28;;;;;;;11.90;6.50;;;;;;;8.77;80.73;100934.29;133908;1300;22250;-73
2023/10/05 01:46:55;;;;;;;15.00;5.50;;;;;;;8.74;80.85;100932.06;133940;1303;22395;-73
2023/10/05 01:50:22;;;;;;;14.40;6.20;;;;;;;8.73;80.70;100925.10;133772;1300;22488;-73
2023/10/05 01:53:22;;;;;;;9.70;5.80;;;;;;;8.69;80.75;100921.60;133934;1300;22553;-73
2023/10/05 01:56:27;;;;;;;14.70;5.90;;;;;;;8.67;80.99;100918.40;133901;1304;22556;-73
2023/10/05 01:59:29;;;;;;;10.50;5.60;;;;;;;8.63;81.03;100921.78;133829;1300;22310;-74
2023/10/05 02:02:37;;;;;;;11.60;5.30;;;;;;;8.59;80.83;100921.79;133843;1301;22438;-74
2023/10/05 02:06:11;;;;;;;11.80;5.30;;;;;;;8.51;80.91;100920.60;133943;1297;22384;-75
2023/10/05 02:09:14;;;;;;;11.90;6.00;;;;;;;8.47;80.78;100917.11;133936;1300;22296;-73
2023/10/05 02:12:18;;;;;;;17.80;6.50;;;;;;;8.43;80.84;100909.38;133919;1301;22418;-73
2023/10/05 02:15:31;;;;;;;12.40;6.50;;;;;;;8.39;81.26;100916.59;133932;1297;22476;-74
2023/10/05 02:18:32;;;;;;;16.20;6.10;;;;;;;8.35;81.05;100917.46;133797;1300;23330;-75
2023/10/05 02:21:36;;;;;;;11.00;5.70;;;;;;;8.31;81.06;100919.68;133945;1297;22381;-73
2023/10/05 02:24:40;;;;;;;12.20;5.80;;;;;;;8.27;80.84;100924.84;133957;1304;22386;-75
2023/10/05 02:28:03;;;;;;;9.20;5.20;;;;;;;8.22;81.11;100928.10;133787;1297;23308;-74
2023/10/05 02:31:56;;;;;;;13.50;6.10;;;;;;;8.16;80.92;100925.45;133963;1297;23709;-74
2023/10/05 02:34:43;;;;;;;12.50;6.50;;;;;;;8.10;81.45;100918.02;133840;1303;22188;-73
2023/10/05 02:37:48;;;;;;;11.60;5.60;;;;;;;8.07;81.45;100915.97;133933;1300;22526;-73
2023/10/05 02:40:54;;;;;;;10.40;5.00;;;;;;;8.03;81.13;100919.09;133990;1298;22207;-73
2023/10/05 02:43:58;;;;;;;8.10;4.50;;;;;;;7.97;80.84;100920.48;133792;1304;22424;-76
2023/10/05 02:47:13;;;;;;;7.10;4.10;;;;;;;7.90;80.63;100918.60;133857;1298;22461;-73
2023/10/05 02:50:14;;;;;;;9.00;4.50;;;;;;;7.86;80.56;100917.55;133814;1300;22371;-74
2023/10/05 02:53:46;;;;;;;9.10;4.80;;;;;;;7.81;80.55;100921.15;133847;1300;22421;-73
2023/10/05 02:56:48;;;;;;;7.10;4.50;;;;;;;7.77;80.50;100917.13;133939;1300;22379;-73
2023/10/05 02:59:55;;;;;;;8.50;4.80;;;;;;;7.69;80.21;100919.00;133920;1297;23471;-73
2023/10/05 03:03:24;;;;;;;8.90;3.80;;;;;;;7.62;80.31;100924.45;134023;1304;23142;-73
2023/10/05 03:06:27;;;;;;;7.40;4.60;;;;;;;7.56;80.29;100926.25;134051;1300;22318;-74
2023/10/05 03:09:31;;;;;;;9.60;5.20;;;;;;;7.51;80.38;100923.84;133869;1298;23267;-73
2023/10/05 03:12:32;;;;;;;8.30;4.40;;;;;;;7.48;80.70;100920.95;134031;1297;23271;-74
2023/10/05 03:16:03;;;;;;;6.90;4.20;;;;;;;7.44;80.56;100916.71;134054;1297;22255;-73
2023/10/05 03:19:18;;;;;;;;;;;;;;;;;;;;;
2023/10/05 03:22:54;;;;;;;7.90;4.60;;;;;;;7.25;80.07;100902.05;133825;1297;22524;-73
2023/10/05 03:25:59;;;;;;;10.00;4.20;;;;;;;7.18;80.48;100907.70;133870;1298;22240;-74
2023/10/05 03:29:11;;;;;;;9.30;4.80;;;;;;;7.16;80.56;100896.81;134046;1297;22394;-73
2023/10/05 03:32:16;;;;;;;9.20;5.30;;;;;;;7.14;80.86;100887.96;133877;1299;22399;-73
2023/10/05 03:35:26;;;;;;;8.80;4.90;;;;;;;7.14;80.95;100886.92;134075;1304;22361;-73
2023/10/05 03:38:39;;;;;;;8.20;4.50;;;;;;;7.12;80.84;100882.20;134068;1297;22433;-74
2023/10/05 03:42:06;;;;;;;9.30;4.20;;;;;;;7.12;80.76;100880.76;134026;1297;22373;-73
2023/10/05 03:45:11;;;;;;;7.30;4.00;;;;;;;7.12;80.91;100879.70;133954;1298;22531;-73
2023/10/05 03:48:18;;;;;;;9.10;4.20;;;;;;;7.10;80.85;100878.63;134079;1297;22558;-74
2023/10/05 03:51:22;;;;;;;9.50;4.70;;;;;;;7.12;81.06;100881.42;133792;1303;22371;-75
2023/10/05 03:54:26;;;;;;;9.40;4.70;;;;;;;7.15;81.72;100879.84;134010;1298;22372;-73
2023/10/05 03:57:31;;;;;;;10.00;4.70;;;;;;;7.16;81.77;100868.60;133968;1304;22467;-74
2023/10/05 04:00:35;;;;;;;10.00;4.50;;;;;;;7.20;81.80;100857.79;133764;1300;23491;-74
2023/10/05 04:04:21;;;;;;;8.80;4.90;;;;;;;7.20;81.57;100856.88;134038;1297;22460;-75
2023/10/05 04:07:17;;;;;;;11.00;4.60;;;;;;;7.23;82.51;100843.51;134050;1300;23013;-74
2023/10/05 04:10:45;;;;;;;10.50;5.50;;;;;;;7.26;82.85;100837.38;134054;1299;22224;-74
2023/10/05 04:13:53;;;;;;;;;;;;;;;7.31;83.33;100831.65;133929;1300;22471;-74
2023/10/05 04:16:57;;;;;;;9.50;5.30;;;;;;;7.34;83.45;100823.16;134054;1304;22358;-74
2023/10/05 04:20:09;;;;;;;;;;;;;;;;;;;;;
2023/10/05 04:23:38;;;;;;;14.10;6.50;;;;;;;7.50;84.40;100823.79;134064;1298;22487;-74
2023/10/05 04:26:45;;;;;;;11.40;5.20;;;;;;;7.57;84.46;100822.63;133869;1297;22380;-74
2023/10/05 04:30:03;;;;;;;13.40;5.50;;;;;;;7.64;84.54;100818.70;134062;1297;22453;-74
2023/10/05 04:33:04;;;;;;;13.80;6.10;;;;;;;7.70;84.47;100817.34;134051;1298;22301;-75
2023/10/05 04:36:09;;;;;;;11.50;5.30;;;;;;;7.75;84.68;100814.45;134008;1300;22538;-74
2023/10/05 04:39:43;;;;;;;10.70;5.80;;;;;;;7.80;84.75;100806.05;134069;1297;23131;-75
2023/10/05 04:42:58;;;;;;;13.30;5.70;;;;;;;7.89;84.97;100810.61;134111;1299;22478;-72
2023/10/05 04:46:07;;;;;;;9.40;4.90;;;;;;;7.93;84.99;100811.11;133901;1298;22567;-73
2023/10/05 04:49:28;;;;;;;10.70;5.30;;;;;;;7.95;85.03;100808.08;134030;1298;22700;-74
2023/10/05 04:52:33;;;;;;;8.20;5.50;;;;;;;7.98;85.15;100803.61;134023;1301;22488;-72
2023/10/05 04:55:45;;;;;;;7.80;5.00;;;;;;;8.03;85.21;100804.02;134050;1297;22332;-72
2023/10/05 05:02:21;;;;;;;10.70;5.70;;;;;;;8.16;85.43;100799.92;133653;1298;22269;-74
2023/10/05 05:08:46;;;;;;;9.20;5.70;;;;;;;8.30;85.53;100798.71;133847;1297;23146;-73
2023/10/05 05:11:50;;;;;;;10.70;5.80;;;;;;;8.35;85.56;100801.84;133897;1297;22452;-74
2023/10/05 05:14:56;;;;;;;10.70;5.90;;;;;;;8.39;85.58;100804.77;134017;1298;23180;-73
2023/10/05 05:18:22;;;;;;;10.60;5.70;;;;;;;8.45;85.53;100806.08;134011;1298;23276;-75
2023/10/05 05:21:34;;;;;;;12.50;5.20;;;;;;;8.52;85.46;100806.48;133955;1294;22462;-74
2023/10/05 05:24:47;;;;;;;10.10;5.90;;;;;;;8.58;85.40;100809.86;133955;1298;22237;-75
2023/10/05 05:28:01;;;;;;;;;;;;;;;;;;;;;
2023/10/05 05:31:14;;;;;;;11.50;5.60;;;;;;;8.74;85.30;100814.78;133916;1298;22227;-72
2023/10/05 05:34:25;;;;;;;13.10;5.50;;;;;;;8.80;85.38;100817.00;133944;1298;22496;-73
2023/10/05 05:37:56;;;;;;;;;;;;;;;;;;;;;
2023/10/05 05:41:36;;;;;;;8.90;5.10;;;;;;;8.96;85.40;100816.45;133982;1298;23135;-74
2023/10/05 05:45:05;;;;;;;12.40;6.10;;;;;;;9.05;85.40;100809.16;133925;1298;23168;-74
2023/10/05 05:48:13;;;;;;;9.70;4.90;;;;;;;9.14;85.28;100809.20;133794;1298;22334;-74
2023/10/05 05:51:27;;;;;;;11.60;5.70;;;;;;;9.25;85.36;100810.45;133810;1302;22298;-74
2023/10/05 05:54:46;;;;;;;12.40;5.50;;;;;;;9.45;85.45;100808.64;133906;1299;22275;-74
2023/10/05 05:58:02;;;;;;;8.80;5.50;;;;;;;9.68;85.32;100809.66;133713;1300;23527;-73
2023/10/05 06:01:26;;;;;;;;;;;;;;;;;;;;;
2023/10/05 06:04:38;;;;;;;14.20;5.60;;;;;;;9.98;84.84;100805.38;133963;1298;23231;-74
2023/10/05 06:07:43;;;;;;;15.90;5.40;;;;;;;10.04;84.46;100805.21;134052;1298;22876;-75
2023/10/05 06:10:46;;;;;;;7.50;4.40;;;;;;;10.11;84.35;100808.08;133958;1298;22443;-73
2023/10/05 06:14:10;;;;;;;8.70;5.20;;;;;;;10.20;84.22;100807.92;133907;1299;22287;-73
2023/10/05 06:17:41;;;;;;;11.80;5.20;;;;;;;10.20;83.91;100807.84;133901;1300;22398;-75
2023/10/05 06:21:17;;;;;;;;;;;;;;;;;;;;;
2023/10/05 06:24:30;;;;;;;13.40;5.20;;;;;;;10.27;83.64;100800.86;133872;1298;22527;-73
2023/10/05 06:27:55;;;;;;;12.00;5.30;;;;;;;10.46;83.73;100805.05;133896;1300;22704;-73
2023/10/05 06:31:26;;;;;;;12.80;5.10;;;;;;;10.52;83.28;100807.66;133947;1297;22406;-74
2023/10/05 06:34:25;;;;;;;10.60;5.40;;;;;;;10.57;83.14;100803.30;133936;1301;23036;-74
2023/10/05 06:37:29;;;;;;;7.90;4.50;;;;;;;10.80;83.53;100804.79;134038;1301;22450;-75
2023/10/05 06:40:57;;;;;;;10.10;4.40;;;;;;;11.12;83.39;100804.91;133822;1301;22352;-75
2023/10/05 06:44:23;;;;;;;6.50;4.40;;;;;;;11.45;83.10;100800.17;133963;1297;22251;-75
2023/10/05 06:47:48;;;;;;;10.20;4.50;;;;;;;11.96;82.87;100799.02;133989;1298;22400;-75
2023/10/05 06:51:00;;;;;;;10.10;4.50;;;;;;;12.28;82.07;100800.39;133948;1298;22403;-77
2023/10/05 06:54:24;;;;;;;8.10;4.70;;;;;;;12.66;82.21;100804.28;129893;1299;5416647;-75
2023/10/05 06:57:30;;;;;;;10.60;4.10;;;;;;;13.08;81.39;100806.69;133935;1299;22416;-77
2023/10/05 07:00:45;;;;;;;9.50;4.70;;;;;;;13.39;80.43;100805.27;133986;1298;22218;-75
2023/10/05 07:07:40;;;;;;;8.30;4.30;;;;;;;13.50;78.53;100808.20;134121;1298;23275;-73
2023/10/05 07:11:06;;;;;;;;;;;;;;;13.42;77.92;100807.81;134060;1297;22463;-73
2023/10/05 07:14:13;;;;;;;11.10;4.20;;;;;;;13.48;78.05;100811.07;134022;1301;22362;-73
2023/10/05 07:17:25;;;;;;;11.60;4.50;;;;;;;13.71;77.90;100811.61;134068;1304;22211;-73
2023/10/05 07:20:29;;;;;;;10.00;4.80;;;;;;;13.97;77.38;100807.42;134016;1297;22377;-73
2023/10/05 07:23:36;;;;;;;9.60;4.20;;;;;;;14.17;76.86;100804.64;134048;1298;22492;-73
2023/10/05 07:27:00;;;;;;;9.00;4.10;;;;;;;14.38;76.53;100801.01;133977;1300;22435;-73
2023/10/05 07:30:13;;;;;;;8.60;4.50;;;;;;;14.66;75.66;100799.07;134046;1297;22408;-73
2023/10/05 07:33:54;;;;;;;;;;;;;;;;;;;;;
2023/10/05 07:37:19;;;;;;;7.90;3.90;;;;;;;15.54;74.41;100793.04;133931;1299;22535;-74
2023/10/05 07:40:30;;;;;;;7.70;4.50;;;;;;;15.62;72.97;100788.13;133886;1298;23097;-73
2023/10/05 07:44:15;;;;;;;7.40;4.00;;;;;;;15.59;71.99;100786.56;134062;1303;23375;-74
2023/10/05 07:47:20;;;;;;;8.10;4.40;;;;;;;15.53;72.03;100783.95;134044;1298;22388;-73
2023/10/05 07:50:37;;;;;;;;;;;;;;;;;;;;;
2023/10/05 07:53:49;;;;;;;7.50;4.10;;;;;;;15.30;71.02;100782.70;134089;1301;22472;-73
2023/10/05 08:01:17;;;;;;;7.10;4.20;;;;;;;14.99;69.89;100780.87;134123;1298;22303;-71
2023/10/05 08:04:41;;;;;;;6.00;3.40;;;;;;;14.85;70.32;100781.57;134242;1299;22447;-73
2023/10/05 08:07:47;;;;;;;7.50;4.00;;;;;;;14.81;70.14;100779.51;134162;1298;22323;-72
2023/10/05 08:10:59;;;;;;;6.50;3.90;;;;;;;14.90;70.27;100778.47;134027;1299;22481;-71
2023/10/05 08:14:20;;;;;;;10.10;3.90;;;;;;;15.08;70.10;100776.42;134215;1299;22382;-72
2023/10/05 08:17:42;;;;;;;6.60;3.70;;;;;;;15.32;69.83;100775.67;134178;1299;22307;-72
2023/10/05 08:20:43;;;;;;;7.50;3.80;;;;;;;15.69;69.61;100782.66;134203;1289;22461;-72
2023/10/05 08:23:44;;;;;;;9.00;3.70;;;;;;;16.06;69.43;100784.19;134180;1298;22251;-72
2023/10/05 08:27:03;;;;;;;9.90;3.60;;;;;;;16.37;68.87;100782.55;134193;1304;22908;-71
2023/10/05 08:30:18;;;;;;;9.80;4.20;;;;;;;16.69;68.28;100779.81;134293;1298;22422;-71
2023/10/05 08:33:34;;;;;;;8.40;4.00;;;;;;;17.03;67.79;100777.34;134254;1297;23449;-72
2023/10/05 08:36:48;;;;;;;8.20;3.90;;;;;;;17.50;67.23;100772.77;134184;1298;22433;-71
2023/10/05 08:40:27;;;;;;;8.20;4.00;;;;;;;17.91;66.19;100773.36;134193;1295;22390;-72
2023/10/05 08:43:31;;;;;;;8.10;3.70;;;;;;;18.00;63.91;100764.61;134195;1291;22427;-72
2023/10/05 08:46:59;;;;;;;8.20;3.80;;;;;;;17.83;63.77;100763.59;134260;1298;22419;-72
2023/10/05 08:50:16;;;;;;;10.90;3.90;;;;;;;18.01;63.53;100763.63;133938;1301;22467;-72
2023/10/05 08:53:29;;;;;;;8.80;3.90;;;;;;;18.24;62.61;100759.02;134176;1299;23257;-72
2023/10/05 08:56:47;;;;;;;14.80;4.80;;;;;;;18.44;62.36;100754.43;134158;1298;22274;-72
2023/10/05 08:59:55;;;;;;;10.60;4.20;;;;;;;18.54;61.88;100752.85;133953;1301;22411;-72
2023/10/05 09:03:29;;;;;;;7.50;3.90;;;;;;;18.61;60.94;100756.99;134132;1297;22183;-72
2023/10/05 09:06:33;;;;;;;9.90;4.50;;;;;;;18.76;60.37;100755.71;134062;1299;22424;-72
2023/10/05 09:09:56;;;;;;;7.10;3.80;;;;;;;18.93;59.92;100751.27;133868;1300;22240;-72
2023/10/05 09:13:15;;;;;;;7.20;4.00;;;;;;;19.17;60.48;100750.52;134108;1299;22379;-72
2023/10/05 09:16:41;;;;;;;8.90;4.90;;;;;;;19.46;59.34;100750.95;134054;1303;22238;-72
2023/10/05 09:19:50;;;;;;;9.40;4.50;;;;;;;19.58;58.55;100750.77;133976;1304;22920;-72
2023/10/05 09:23:28;;;;;;;11.40;5.60;;;;;;;19.54;57.50;100744.30;134020;1297;22324;-72
2023/10/05 09:26:38;;;;;;;10.00;5.10;;;;;;;19.46;57.39;100748.21;133968;1298;22298;-73
2023/10/05 09:29:53;;;;;;;11.90;5.60;;;;;;;19.32;56.63;100743.94;134014;1304;22444;-72
2023/10/05 09:33:19;;;;;;;9.80;4.90;;;;;;;18.93;56.26;100745.36;133986;1300;22442;-73
2023/10/05 09:36:31;;;;;;;13.40;5.50;;;;;;;18.71;56.46;100751.23;134017;1303;22346;-72
2023/10/05 09:40:17;;;;;;;12.50;5.50;;;;;;;18.47;55.67;100758.48;133991;1300;22429;-72
2023/10/05 09:43:55;;;;;;;;;;;;;;;;;;;;;
2023/10/05 09:47:15;;;;;;;;;;;;;;;;;;;;;
2023/10/05 09:50:26;;;;;;;11.80;5.10;;;;;;;17.80;54.87;100767.34;133872;1298;22466;-72
2023/10/05 09:54:08;;;;;;;9.50;4.50;;;;;;;17.49;54.79;100769.52;133938;1299;22589;-72
2023/10/05 09:57:20;;;;;;;11.00;4.90;;;;;;;17.22;55.13;100769.42;133962;1298;22356;-72
2023/10/05 10:00:47;;;;;;;11.60;5.40;;;;;;;16.98;55.48;100777.43;133867;1300;23017;-72
2023/10/05 10:03:53;;;;;;;10.70;5.10;;;;;;;16.90;55.84;100774.02;133977;1297;22291;-72
2023/10/05 10:07:06;;;;;;;10.50;5.10;;;;;;;16.91;55.58;100768.20;133869;1301;22377;-72
2023/10/05 10:10:19;;;;;;;12.70;5.00;;;;;;;16.96;55.53;100764.27;133959;1298;22424;-72
2023/10/05 10:13:23;;;;;;;14.60;5.40;;;;;;;17.08;55.17;100762.93;133982;1302;22441;-72
2023/10/05 10:16:39;;;;;;;10.10;4.70;;;;;;;17.15;55.45;100760.70;134038;1297;22526;-72
2023/10/05 10:19:45;;;;;;;15.40;6.50;;;;;;;17.33;55.42;100758.33;134000;1298;22261;-73
2023/10/05 10:22:55;;;;;;;7.90;5.00;;;;;;;17.58;55.63;100754.95;133891;1297;23070;-72
2023/10/05 10:26:16;;;;;;;11.70;5.30;;;;;;;17.68;55.62;100750.29;134068;1297;23379;-71
2023/10/05 10:29:22;;;;;;;10.90;4.60;;;;;;;17.61;55.47;100744.60;133846;1298;22513;-72
2023/10/05 10:32:32;;;;;;;10.50;5.00;;;;;;;17.53;55.71;100742.57;133821;1299;23129;-72
2023/10/05 10:35:33;;;;;;;10.90;5.10;;;;;;;17.48;55.68;100739.48;133841;1298;22486;-71
2023/10/05 10:39:22;;;;;;;14.30;5.80;;;;;;;17.56;55.87;100734.95;134045;1304;23391;-72
2023/10/05 10:42:30;;;;;;;14.10;5.90;;;;;;;17.55;55.64;100732.71;133863;1297;23246;-72
2023/10/05 10:45:40;;;;;;;12.10;5.60;;;;;;;17.49;55.87;100732.92;133920;1297;22440;-73
2023/10/05 10:48:57;;;;;;;9.00;4.70;;;;;;;17.42;55.23;100724.67;133911;1297;22376;-74
2023/10/05 10:52:02;;;;;;;13.00;5.00;;;;;;;17.33;55.53;100719.58;133807;1298;22407;-74
2023/10/05 10:55:15;;;;;;;11.70;5.30;;;;;;;17.21;55.73;100719.09;133897;1298;22485;-74
2023/10/05 10:58:23;;;;;;;10.20;4.20;;;;;;;17.17;55.86;100715.88;133957;1300;22426;-72
2023/10/05 11:01:41;;;;;;;11.80;5.30;;;;;;;17.16;55.50;100710.71;133790;1297;22248;-72
2023/10/05 11:04:50;;;;;;;15.30;5.00;;;;;;;17.13;55.52;100709.66;133811;1297;23115;-73
2023/10/05 11:07:59;;;;;;;9.30;4.90;;;;;;;17.06;55.36;100701.81;133983;1298;23174;-72
2023/10/05 11:11:15;;;;;;;10.80;4.80;;;;;;;17.07;55.79;100705.00;133903;1298;22505;-72
2023/10/05 11:14:24;;;;;;;13.70;5.10;;;;;;;17.13;55.81;100705.86;133892;1297;22894;-72
2023/10/05 11:17:45;;;;;;;18.70;5.90;;;;;;;17.10;55.68;100700.77;134026;1297;22397;-72
2023/10/05 11:21:23;;;;;;;;;;;;;;;;;;;;;
2023/10/05 11:24:39;;;;;;;10.20;5.00;;;;;;;17.20;55.48;100698.37;133968;1297;22458;-72
2023/10/05 11:28:13;;;;;;;10.60;4.80;;;;;;;17.07;55.50;100698.07;133828;1297;23083;-72
2023/10/05 11:31:24;;;;;;;13.20;5.70;;;;;;;17.08;55.94;100693.70;133986;1298;22388;-72
2023/10/05 11:34:38;;;;;;;10.30;4.70;;;;;;;17.14;55.95;100690.74;133832;1300;22426;-73
2023/10/05 11:37:58;;;;;;;11.60;6.10;;;;;;;17.25;56.21;100685.90;133995;1298;22453;-71
2023/10/05 11:41:10;;;;;;;;;;;;;;;;;;;;;
2023/10/05 11:44:29;;;;;;;10.00;5.40;;;;;;;17.81;56.13;100681.75;134047;1296;22409;-71
2023/10/05 11:47:41;;;;;;;13.10;5.40;;;;;;;18.08;55.65;100678.67;133704;1301;22299;-72
2023/10/05 11:50:52;;;;;;;;;;;;;;;18.23;55.31;100682.27;133598;1303;22471;-72
2023/10/05 11:53:59;;;;;;;9.30;4.90;;;;;;;18.24;54.73;100684.13;133998;1297;22400;-72
2023/10/05 11:57:05;;;;;;;11.80;5.30;;;;;;;18.21;55.00;100677.59;133939;1303;22396;-71
2023/10/05 12:00:22;;;;;;;11.20;4.70;;;;;;;18.30;55.31;100677.98;133980;1300;23239;-72
2023/10/05 12:03:45;;;;;;;;;;;;;;;;;;;;;
2023/10/05 12:10:45;;;;;;;10.80;4.80;;;;;;;17.92;54.68;100674.57;133939;1298;22475;-72
2023/10/05 12:13:58;;;;;;;9.90;4.90;;;;;;;17.82;55.13;100677.35;133932;1304;23090;-72
2023/10/05 12:17:05;;;;;;;12.40;5.00;;;;;;;17.79;55.24;100685.79;133973;1300;22480;-74
2023/10/05 12:20:14;;;;;;;9.50;4.40;;;;;;;17.77;55.45;100688.66;133980;1297;22337;-73
2023/10/05 12:23:22;;;;;;;13.50;4.90;;;;;;;17.84;55.82;100686.32;133922;1298;22631;-71
2023/10/05 12:26:28;;;;;;;16.10;4.60;;;;;;;17.87;55.26;100686.98;133838;1299;22465;-72
2023/10/05 12:29:42;;;;;;;9.20;3.20;;;;;;;17.80;54.68;100683.48;133951;1298;23189;-73
2023/10/05 12:32:43;;;;;;;7.90;3.10;;;;;;;17.70;53.97;100686.69;133850;1297;23131;-72
2023/10/05 12:36:07;;;;;;;7.10;2.70;;;;;;;17.60;53.74;100682.92;133869;1295;22470;-72
2023/10/05 12:39:12;;;;;;;7.50;2.30;;;;;;;17.50;53.47;100677.51;133779;1300;22435;-75
2023/10/05 12:42:18;;;;;;;10.30;3.40;;;;;;;17.48;54.05;100675.93;133839;1301;22454;-74
2023/10/05 12:45:22;;;;;;;7.00;2.80;;;;;;;17.51;53.63;100679.20;133778;1297;22733;-72
2023/10/05 12:48:37;;;;;;;8.10;3.50;;;;;;;17.49;53.73;100681.05;133910;1303;22443;-72
2023/10/05 12:51:39;;;;;;;9.10;3.20;;;;;;;17.54;53.83;100679.02;133960;1297;22525;-72
2023/10/05 12:54:42;;;;;;;7.10;3.90;;;;;;;17.63;53.57;100676.83;133870;1300;22478;-73
2023/10/05 12:57:54;;;;;;;9.30;3.70;;;;;;;17.74;53.58;100676.17;133785;1300;22528;-73
2023/10/05 13:01:12;;;;;;;6.00;3.40;;;;;;;17.78;53.21;100675.63;133865;1298;22437;-72
2023/10/05 13:04:45;;;;;;;8.60;3.30;;;;;;;17.82;52.80;100668.92;133973;1289;23148;-72
2023/10/05 13:07:56;;;;;;;6.50;3.60;;;;;;;17.90;52.56;100671.39;134037;1304;23588;-72
2023/10/05 13:11:03;;;;;;;10.20;2.90;;;;;;;17.99;52.24;100668.45;134052;1298;22402;-73
2023/10/05 13:14:50;;;;;;;5.90;3.70;;;;;;;18.08;51.86;100666.48;133961;1299;22509;-73
2023/10/05 13:17:58;;;;;;;8.70;3.20;;;;;;;18.14;51.76;100672.65;134020;1297;22474;-72
2023/10/05 13:21:09;;;;;;;9.50;3.90;;;;;;;18.27;52.07;100674.06;133998;1297;22547;-73
2023/10/05 13:24:15;;;;;;;7.90;4.10;;;;;;;18.37;51.73;100680.27;134009;1297;22435;-73
2023/10/05 13:27:16;;;;;;;7.70;3.40;;;;;;;18.37;51.49;100676.79;133944;1297;22418;-73
2023/10/05 13:30:33;;;;;;;7.00;3.00;;;;;;;18.24;51.22;100674.71;133842;1300;22471;-73
2023/10/05 13:33:49;;;;;;;8.40;3.60;;;;;;;18.13;51.25;100671.58;133972;1297;22311;-73
2023/10/05 13:36:55;;;;;;;6.90;3.20;;;;;;;18.01;51.40;100677.83;133767;1297;22466;-74
2023/10/05 13:40:03;;;;;;;8.30;3.20;;;;;;;17.86;51.52;100673.20;133820;1297;22942;-73
2023/10/05 13:43:13;;;;;;;9.20;3.20;;;;;;;17.72;51.70;100676.14;134009;1300;23219;-73
2023/10/05 13:46:21;;;;;;;9.00;3.40;;;;;;;17.55;51.74;100677.52;134021;1300;23361;-73
2023/10/05 13:49:28;;;;;;;10.10;2.80;;;;;;;17.43;52.01;100677.48;133989;1298;22998;-73
2023/10/05 13:52:33;;;;;;;8.30;3.50;;;;;;;17.34;52.25;100674.52;133974;1297;22382;-73
2023/10/05 13:55:36;;;;;;;5.20;3.40;;;;;;;17.24;52.44;100678.76;133976;1300;22435;-74
2023/10/05 13:58:46;;;;;;;6.20;3.10;;;;;;;17.15;52.58;100676.47;133961;1291;22338;-74
2023/10/05 14:01:48;;;;;;;7.20;3.60;;;;;;;17.07;52.83;100673.65;134007;1297;22500;-73
2023/10/05 14:04:52;;;;;;;6.20;3.30;;;;;;;17.00;53.20;100669.40;133699;1300;22459;-73
2023/10/05 14:07:53;;;;;;;9.30;3.80;;;;;;;16.98;53.13;100671.48;133981;1300;22390;-73
2023/10/05 14:11:04;;;;;;;7.30;3.30;;;;;;;16.95;53.15;100671.70;133917;1297;22273;-73
2023/10/05 14:14:09;;;;;;;8.20;3.70;;;;;;;16.88;53.36;100667.04;133945;1297;22467;-73
2023/10/05 14:17:11;;;;;;;6.80;3.30;;;;;;;16.86;53.38;100662.81;133913;1290;22423;-73
2023/10/05 14:20:20;;;;;;;7.20;3.30;;;;;;;16.86;53.41;100662.16;133917;1297;22440;-74
2023/10/05 14:23:24;;;;;;;8.80;3.20;;;;;;;16.80;53.53;100657.70;133801;1300;22387;-74
2023/10/05 14:26:27;;;;;;;9.10;3.70;;;;;;;16.75;53.73;100660.64;133884;1297;22227;-73
2023/10/05 14:29:44;;;;;;;8.80;3.50;;;;;;;16.75;53.89;100657.56;133932;1298;22423;-73
2023/10/05 14:32:49;;;;;;;7.10;3.50;;;;;;;16.77;54.11;100658.09;133941;1297;22339;-73
2023/10/05 14:35:56;;;;;;;6.00;3.10;;;;;;;16.76;54.29;100656.59;133910;1297;23293;-76
2023/10/05 14:39:06;;;;;;;10.90;3.60;;;;;;;16.68;54.33;100662.52;133934;1297;22432;-75
2023/10/05 14:42:20;;;;;;;13.10;3.90;;;;;;;16.64;54.74;100664.26;133930;1297;22399;-75
2023/10/05 14:45:28;;;;;;;9.50;3.40;;;;;;;16.67;54.69;100661.81;133936;1297;22732;-76
2023/10/05 14:48:48;;;;;;;10.50;4.00;;;;;;;16.69;54.81;100665.84;133870;1297;22954;-76
2023/10/05 14:51:50;;;;;;;8.70;3.40;;;;;;;16.71;55.18;100662.05;134015;1297;22293;-76
2023/10/05 14:54:54;;;;;;;10.70;4.10;;;;;;;16.69;55.13;100660.54;133935;1299;22484;-75
2023/10/05 14:57:55;;;;;;;11.20;4.30;;;;;;;16.61;55.38;100663.29;133917;1297;22474;-75
2023/10/05 15:00:59;;;;;;;9.90;3.60;;;;;;;16.56;55.52;100668.27;133952;1296;22436;-74
2023/10/05 15:04:11;;;;;;;11.80;4.00;;;;;;;16.52;55.50;100671.16;133893;1297;22512;-75
2023/10/05 15:07:14;;;;;;;11.00;3.50;;;;;;;16.45;55.66;100674.23;134034;1297;23484;-76
2023/10/05 15:10:19;;;;;;;9.10;3.80;;;;;;;16.36;55.80;100668.91;133954;1294;22209;-76
2023/10/05 15:13:23;;;;;;;6.90;3.40;;;;;;;16.27;55.96;100671.70;133888;1297;22435;-76
2023/10/05 15:16:24;;;;;;;10.20;3.80;;;;;;;16.22;56.31;100671.77;133954;1298;22351;-75
2023/10/05 15:19:39;;;;;;;10.00;3.90;;;;;;;16.14;56.59;100675.77;133876;1300;22432;-76
2023/10/05 15:22:42;;;;;;;12.50;4.70;;;;;;;16.05;56.72;100679.17;133883;1298;22357;-76
2023/10/05 15:25:43;;;;;;;6.50;3.70;;;;;;;15.99;56.83;100678.41;133978;1297;22239;-76
2023/10/05 15:28:44;;;;;;;8.80;3.50;;;;;;;15.99;56.98;100681.02;133931;1297;22354;-75
2023/10/05 15:32:05;;;;;;;10.20;3.80;;;;;;;15.95;57.18;100677.42;133923;1297;23186;-75
2023/10/05 15:35:11;;;;;;;12.30;4.20;;;;;;;15.90;57.40;100676.70;133967;1297;22418;-76
2023/10/05 15:38:35;;;;;;;10.50;3.80;;;;;;;15.86;57.50;100671.64;133955;1301;22386;-76
2023/10/05 15:42:21;;;;;;;9.30;3.60;;;;;;;15.83;57.76;100675.10;133581;1301;22361;-76